Time;durP1;ratioP1;P1;durP2;ratioP2;P2;SDS_P1;SDS_P2;PMS_P1;PMS_P2;Temp;Humidity;BMP_temperature;BMP_pressure;BME280_temperature;BME280_humidity;BME280_pressure;Samples;Min_cycle;Max_cycle;Signal;HPM_P1;HPM_P2
2022/01/15 00:00:40;;;;;;;35.40;6.03;;;-1.00;99.90;;;;;;2098385;28;20175;-71
2022/01/15 00:01:41;;;;;;;11.93;5.25;;;-0.90;99.90;;;;;;2098795;28;20532;-71
2022/01/15 00:02:42;;;;;;;10.70;5.22;;;-0.90;99.90;;;;;;2098211;28;20738;-72
2022/01/15 00:03:43;;;;;;;34.60;9.07;;;-0.90;99.90;;;;;;2089827;28;20221;-72
2022/01/15 00:04:43;;;;;;;19.93;6.30;;;-1.00;99.90;;;;;;2089849;28;20179;-73
2022/01/15 00:05:45;;;;;;;26.10;7.87;;;-1.00;99.90;;;;;;2098090;28;20245;-72
2022/01/15 00:06:46;;;;;;;49.60;10.57;;;-1.00;99.90;;;;;;2098065;28;20176;-72
2022/01/15 00:07:48;;;;;;;19.83;6.63;;;-1.10;99.90;;;;;;2098138;28;20543;-72
2022/01/15 00:08:48;;;;;;;35.80;9.00;;;-1.20;99.90;;;;;;2098040;28;20172;-72
2022/01/15 00:09:50;;;;;;;53.57;9.67;;;-1.20;99.90;;;;;;2089966;28;20244;-72
2022/01/15 00:10:51;;;;;;;22.33;7.22;;;-1.30;99.90;;;;;;2098121;28;20229;-71
2022/01/15 00:11:53;;;;;;;20.73;6.93;;;-1.30;99.90;;;;;;2098249;28;20654;-72
2022/01/15 00:12:55;;;;;;;24.08;7.85;;;-1.30;99.90;;;;;;2098005;28;20198;-71
2022/01/15 00:14:09;;;;;;;21.50;6.65;;;-1.30;99.90;;;;;;2098147;28;20172;-72
2022/01/15 00:15:20;;;;;;;50.17;13.05;;;-1.40;99.90;;;;;;2098105;28;20677;-72
2022/01/15 00:16:44;;;;;;;40.10;8.75;;;-1.40;99.90;;;;;;2098067;28;20179;-72
2022/01/15 00:17:50;;;;;;;14.52;5.85;;;-1.50;99.90;;;;;;2098444;28;20179;-72
2022/01/15 00:20:21;;;;;;;13.10;5.40;;;-1.50;99.90;;;;;;2085417;28;20620;-72
2022/01/15 00:21:22;;;;;;;11.20;5.57;;;-1.40;99.90;;;;;;2098337;28;20199;-71
2022/01/15 00:22:22;;;;;;;12.43;5.53;;;-1.40;99.90;;;;;;2098646;28;20182;-72
2022/01/15 00:23:23;;;;;;;8.00;4.30;;;-1.40;99.90;;;;;;2098495;28;20203;-71
2022/01/15 00:24:24;;;;;;;10.43;4.87;;;-1.40;99.90;;;;;;2097999;28;20796;-72
2022/01/15 00:25:27;;;;;;;8.63;4.57;;;-1.30;99.90;;;;;;2088361;28;20562;-71
2022/01/15 00:26:28;;;;;;;11.45;5.07;;;-1.30;99.90;;;;;;2089711;28;20216;-73
2022/01/15 00:27:29;;;;;;;9.60;5.17;;;-1.30;99.90;;;;;;2089558;28;20199;-72
2022/01/15 00:28:29;;;;;;;9.53;5.03;;;-1.30;99.90;;;;;;2090321;28;20526;-72
2022/01/15 00:29:31;;;;;;;11.97;5.43;;;-1.30;99.90;;;;;;2090312;28;20183;-73
2022/01/15 00:30:32;;;;;;;10.18;5.22;;;-1.30;99.90;;;;;;2090182;28;20751;-73
2022/01/15 00:31:34;;;;;;;10.23;4.67;;;-1.40;99.90;;;;;;2089486;28;20238;-72
2022/01/15 00:32:35;;;;;;;13.77;6.85;;;-1.40;99.90;;;;;;2089719;28;20189;-73
2022/01/15 00:33:35;;;;;;;13.43;6.40;;;-1.40;99.90;;;;;;2090239;28;20191;-72
2022/01/15 00:34:36;;;;;;;14.20;6.20;;;-1.40;99.90;;;;;;2090157;28;20690;-71
2022/01/15 00:35:37;;;;;;;11.70;5.57;;;-1.40;99.90;;;;;;2089435;28;20191;-72
2022/01/15 00:36:38;;;;;;;11.60;5.00;;;-1.40;99.90;;;;;;2081388;28;20300;-71
2022/01/15 00:37:40;;;;;;;10.57;5.07;;;-1.40;99.90;;;;;;2089539;28;20213;-73
2022/01/15 00:38:41;;;;;;;13.48;5.93;;;-1.50;99.90;;;;;;2090279;28;20257;-72
2022/01/15 00:39:42;;;;;;;11.63;4.95;;;-1.50;99.90;;;;;;2089537;28;20275;-72
2022/01/15 00:40:43;;;;;;;7.60;4.30;;;-1.50;99.90;;;;;;2089608;28;20583;-72
2022/01/15 00:41:43;;;;;;;13.77;6.43;;;-1.50;99.90;;;;;;2089472;28;20532;-72
2022/01/15 00:42:45;;;;;;;13.40;6.00;;;-1.50;99.90;;;;;;2089571;28;20252;-72
2022/01/15 00:43:46;;;;;;;9.68;5.05;;;-1.50;99.90;;;;;;2090158;28;20168;-72
2022/01/15 00:44:49;;;;;;;19.10;5.97;;;-1.50;99.90;;;;;;2089534;28;20272;-71
2022/01/15 00:45:50;;;;;;;59.85;7.63;;;-1.60;99.90;;;;;;2089626;28;20666;-72
2022/01/15 00:46:51;;;;;;;24.20;7.30;;;-1.60;99.90;;;;;;2090082;28;20266;-72
2022/01/15 00:47:52;;;;;;;23.63;7.43;;;-1.60;99.90;;;;;;2090111;28;20413;-72
2022/01/15 00:48:52;;;;;;;30.20;6.90;;;-1.60;99.90;;;;;;2090155;28;20176;-71
2022/01/15 00:49:53;;;;;;;52.70;10.07;;;-1.60;99.90;;;;;;2088840;28;20180;-72
2022/01/15 00:50:54;;;;;;;27.43;7.57;;;-1.60;99.90;;;;;;2089489;28;20250;-72
2022/01/15 00:51:54;;;;;;;17.30;7.20;;;-1.60;99.90;;;;;;2089318;28;20184;-71
2022/01/15 00:52:55;;;;;;;41.27;7.13;;;-1.60;99.90;;;;;;2089949;28;20257;-72
2022/01/15 00:53:56;;;;;;;21.07;6.97;;;-1.60;99.90;;;;;;2089998;28;20665;-71
2022/01/15 00:54:57;;;;;;;27.43;8.17;;;-1.50;99.90;;;;;;2089980;28;20203;-71
2022/01/15 00:55:57;;;;;;;18.67;6.67;;;-1.50;99.90;;;;;;2089485;28;20529;-72
2022/01/15 00:56:58;;;;;;;16.53;6.07;;;-1.50;99.90;;;;;;2089435;28;20218;-72
2022/01/15 00:57:59;;;;;;;13.03;5.00;;;-1.50;99.90;;;;;;2090027;28;20556;-71
2022/01/15 00:59:00;;;;;;;6.87;4.07;;;-1.60;99.90;;;;;;2090053;28;20179;-72
2022/01/15 01:00:01;;;;;;;61.95;8.00;;;-1.60;99.90;;;;;;2089958;28;20168;-71
2022/01/15 01:01:02;;;;;;;15.33;4.20;;;-1.60;99.90;;;;;;2088139;28;20183;-72
2022/01/15 01:02:02;;;;;;;14.30;4.50;;;-1.60;99.90;;;;;;2103432;28;20177;-71
2022/01/15 01:03:03;;;;;;;16.20;3.65;;;-1.60;99.90;;;;;;2105794;28;20686;-72
2022/01/15 01:04:04;;;;;;;12.98;4.03;;;-1.50;99.90;;;;;;2089381;28;20172;-71
2022/01/15 01:05:06;;;;;;;8.43;3.63;;;-1.60;99.90;;;;;;2089222;28;20846;-72
2022/01/15 01:06:07;;;;;;;11.13;4.38;;;-1.50;99.90;;;;;;2089973;28;20586;-71
2022/01/15 01:07:08;;;;;;;20.80;4.63;;;-1.50;99.90;;;;;;2089180;28;20183;-72
2022/01/15 01:08:08;;;;;;;25.07;5.67;;;-1.50;99.90;;;;;;2081220;28;20181;-71
2022/01/15 01:09:09;;;;;;;13.57;5.47;;;-1.40;99.90;;;;;;2089293;28;20860;-71
2022/01/15 01:10:42;;;;;;;7.83;4.00;;;-1.50;99.90;;;;;;2090046;28;20192;-72
2022/01/15 01:11:47;;;;;;;10.07;3.55;;;-1.50;99.90;;;;;;2089179;28;20226;-71
2022/01/15 01:13:14;;;;;;;11.05;4.05;;;-1.50;99.90;;;;;;2089571;28;20555;-71
2022/01/15 01:23:20;;;;;;;7.38;3.88;;;-1.70;99.90;;;;;;2089190;28;20345;-71
2022/01/15 01:24:21;;;;;;;7.93;3.78;;;-1.70;99.90;;;;;;2089460;28;20184;-72
2022/01/15 01:25:24;;;;;;;9.63;4.15;;;-1.60;99.90;;;;;;2089213;28;20198;-71
2022/01/15 01:26:31;;;;;;;9.60;5.18;;;-1.60;99.90;;;;;;2089325;28;20199;-71
2022/01/15 01:27:44;;;;;;;7.43;4.20;;;-1.60;99.90;;;;;;2089750;28;20622;-71
2022/01/15 01:28:46;;;;;;;9.52;4.25;;;-1.70;99.90;;;;;;2089235;28;20172;-72
2022/01/15 01:32:26;;;;;;;6.82;3.58;;;-1.70;99.90;;;;;;2089307;28;20195;-71
2022/01/15 01:33:35;;;;;;;7.07;3.50;;;-1.80;99.90;;;;;;2089322;28;20197;-71
2022/01/15 01:34:39;;;;;;;7.90;4.20;;;-1.80;99.90;;;;;;2089022;28;20168;-72
2022/01/15 01:35:44;;;;;;;9.82;4.13;;;-1.80;99.90;;;;;;2082358;28;20210;-72
2022/01/15 01:36:59;;;;;;;6.50;3.80;;;-1.90;99.90;;;;;;2089220;28;20229;-72
2022/01/15 01:38:10;;;;;;;6.85;3.50;;;-1.90;99.90;;;;;;2089047;28;20750;-71
2022/01/15 01:39:17;;;;;;;5.20;3.42;;;-1.90;99.90;;;;;;2089334;28;20183;-72
2022/01/15 01:41:21;;;;;;;8.10;3.80;;;-1.90;99.90;;;;;;2089869;28;20201;-71
2022/01/15 01:44:24;;;;;;;13.07;4.50;;;-1.90;99.90;;;;;;2089845;28;20185;-71
2022/01/15 01:45:25;;;;;;;8.02;4.03;;;-1.90;99.90;;;;;;2089586;28;20201;-71
2022/01/15 01:47:40;;;;;;;7.60;3.72;;;-1.90;99.90;;;;;;2089075;28;20264;-71
2022/01/15 01:48:42;;;;;;;7.75;3.83;;;-1.90;99.90;;;;;;2082385;28;20185;-72
2022/01/15 01:49:43;;;;;;;9.27;3.70;;;-2.00;99.90;;;;;;2081263;28;20170;-71
2022/01/15 01:50:44;;;;;;;6.50;3.27;;;-2.00;99.90;;;;;;2089009;28;20174;-71
2022/01/15 01:51:45;;;;;;;8.00;3.77;;;-2.00;99.90;;;;;;2089146;28;20685;-71
2022/01/15 01:52:57;;;;;;;7.50;3.95;;;-2.00;99.90;;;;;;2088961;28;20198;-71
2022/01/15 01:54:01;;;;;;;7.20;3.58;;;-2.00;99.90;;;;;;2089758;28;20178;-72
2022/01/15 01:55:02;;;;;;;8.10;3.35;;;-2.10;99.90;;;;;;2088894;28;20250;-72
2022/01/15 01:56:06;;;;;;;5.85;2.97;;;-2.10;99.90;;;;;;2080785;28;20262;-73
2022/01/15 01:57:06;;;;;;;10.05;4.55;;;-2.10;99.90;;;;;;2088980;28;20174;-71
2022/01/15 01:58:07;;;;;;;7.27;4.03;;;-2.10;99.90;;;;;;2089013;28;20269;-72
2022/01/15 01:59:08;;;;;;;11.67;3.90;;;-2.10;99.90;;;;;;2088970;28;20533;-71
2022/01/15 02:00:14;;;;;;;8.20;3.58;;;-2.10;99.90;;;;;;2089712;28;20177;-72
2022/01/15 02:01:16;;;;;;;6.15;3.40;;;-2.10;99.90;;;;;;2088558;28;20199;-71
2022/01/15 02:02:17;;;;;;;9.95;4.68;;;-2.00;99.90;;;;;;2080924;28;20180;-71
2022/01/15 02:03:17;;;;;;;8.43;4.13;;;-2.10;99.90;;;;;;2088985;28;20567;-71
2022/01/15 02:04:18;;;;;;;8.80;3.90;;;-2.00;99.90;;;;;;2089609;28;20188;-71
2022/01/15 02:05:20;;;;;;;6.90;4.20;;;-2.10;99.90;;;;;;2089504;28;20642;-71
2022/01/15 02:06:21;;;;;;;7.10;3.47;;;-2.10;99.90;;;;;;2089016;28;20178;-71
2022/01/15 02:07:21;;;;;;;7.90;3.85;;;-2.10;99.90;;;;;;2088791;28;20187;-72
2022/01/15 02:08:22;;;;;;;7.03;3.80;;;-2.10;99.90;;;;;;2089026;28;20187;-72
2022/01/15 02:09:24;;;;;;;5.53;3.40;;;-2.20;99.90;;;;;;2088916;28;20723;-73
2022/01/15 02:10:25;;;;;;;6.55;3.00;;;-2.20;99.90;;;;;;2088964;28;20186;-71
2022/01/15 02:11:26;;;;;;;4.17;2.60;;;-2.20;99.90;;;;;;2080718;28;20591;-72
2022/01/15 02:12:27;;;;;;;4.75;2.22;;;-2.30;99.90;;;;;;2088963;28;20504;-71
2022/01/15 02:13:27;;;;;;;5.73;2.40;;;-2.30;99.90;;;;;;2089411;28;20221;-72
2022/01/15 02:14:30;;;;;;;6.20;2.93;;;-2.30;99.90;;;;;;2089502;28;20185;-74
2022/01/15 02:15:30;;;;;;;5.47;2.78;;;-2.30;99.90;;;;;;2088857;28;20176;-71
2022/01/15 02:16:31;;;;;;;3.90;1.90;;;-2.40;99.90;;;;;;2088896;28;20178;-71
2022/01/15 02:17:32;;;;;;;5.40;2.43;;;-2.40;99.90;;;;;;2089376;28;20173;-72
2022/01/15 02:18:34;;;;;;;4.17;2.30;;;-2.40;99.90;;;;;;2089595;28;20554;-71
2022/01/15 02:19:45;;;;;;;6.63;2.78;;;-2.30;99.90;;;;;;2089432;28;20165;-72
2022/01/15 02:21:02;;;;;;;4.20;2.50;;;-2.30;99.90;;;;;;2089557;28;20213;-73
2022/01/15 02:23:33;;;;;;;4.75;2.42;;;-2.20;99.90;;;;;;2089066;28;20691;-71
2022/01/15 02:24:33;;;;;;;5.72;2.53;;;-2.20;99.90;;;;;;2089439;28;20171;-71
2022/01/15 02:25:49;;;;;;;3.47;1.97;;;-2.20;99.90;;;;;;2089439;28;20187;-71
2022/01/15 02:26:50;;;;;;;4.07;2.30;;;-2.20;99.90;;;;;;2088888;28;20730;-71
2022/01/15 02:27:51;;;;;;;3.20;2.07;;;-2.10;99.90;;;;;;2088756;28;20173;-71
2022/01/15 02:29:00;;;;;;;3.23;1.80;;;-2.10;99.90;;;;;;2089526;28;20171;-71
2022/01/15 02:30:04;;;;;;;4.85;2.22;;;-2.10;99.90;;;;;;2089413;28;20170;-71
2022/01/15 02:31:08;;;;;;;5.05;2.28;;;-2.20;99.90;;;;;;2089450;28;20197;-71
2022/01/15 02:32:09;;;;;;;3.55;2.08;;;-2.10;99.90;;;;;;2088486;28;20171;-71
2022/01/15 02:33:10;;;;;;;4.47;2.20;;;-2.10;99.90;;;;;;2088597;28;20345;-71
2022/01/15 02:34:10;;;;;;;3.15;2.10;;;-2.10;99.90;;;;;;2072263;28;20176;-71
2022/01/15 02:35:13;;;;;;;5.87;2.73;;;-2.10;99.90;;;;;;2072144;28;20225;-71
2022/01/15 02:36:20;;;;;;;5.35;2.45;;;-2.10;99.90;;;;;;2081131;28;20657;-71
2022/01/15 02:37:20;;;;;;;3.40;2.00;;;-2.20;99.90;;;;;;2080550;28;20186;-72
2022/01/15 02:38:21;;;;;;;4.97;1.93;;;-2.20;99.90;;;;;;2080393;28;20176;-72
2022/01/15 02:39:22;;;;;;;3.40;2.50;;;-2.20;99.90;;;;;;2088946;28;20224;-72
2022/01/15 02:40:23;;;;;;;3.87;2.23;;;-2.20;99.90;;;;;;2081111;28;20595;-71
2022/01/15 02:41:29;;;;;;;3.00;1.87;;;-2.30;99.90;;;;;;2081221;28;20177;-71
2022/01/15 02:42:31;;;;;;;4.20;2.47;;;-2.30;99.90;;;;;;2080572;28;20254;-71
2022/01/15 02:43:33;;;;;;;6.43;2.50;;;-2.20;99.90;;;;;;2080477;28;20199;-71
2022/01/15 02:44:38;;;;;;;4.72;2.40;;;-2.20;99.90;;;;;;2080384;28;20233;-71
2022/01/15 02:45:43;;;;;;;5.68;2.33;;;-2.20;99.90;;;;;;2080582;28;20262;-73
2022/01/15 02:48:02;;;;;;;5.00;3.00;;;-2.30;99.90;;;;;;2087857;28;20228;-72
2022/01/15 02:49:06;;;;;;;3.80;1.92;;;-2.30;99.90;;;;;;2072269;28;20198;-71
2022/01/15 02:50:08;;;;;;;3.33;1.92;;;-2.40;99.90;;;;;;2074533;28;20773;-72
2022/01/15 02:51:09;;;;;;;3.53;2.17;;;-2.40;99.90;;;;;;2080303;28;20192;-72
2022/01/15 02:52:09;;;;;;;3.87;2.00;;;-2.40;99.90;;;;;;2080697;28;20726;-71
2022/01/15 02:53:14;;;;;;;4.20;2.37;;;-2.40;99.90;;;;;;2088414;28;20763;-71
2022/01/15 02:54:14;;;;;;;4.10;2.35;;;-2.50;99.90;;;;;;2089248;28;20259;-71
2022/01/15 02:55:15;;;;;;;4.27;2.00;;;-2.50;99.90;;;;;;2088617;28;20170;-72
2022/01/15 02:56:16;;;;;;;3.83;2.30;;;-2.50;99.90;;;;;;2088861;28;20258;-72
2022/01/15 02:57:16;;;;;;;3.97;2.50;;;-2.50;99.90;;;;;;2088607;28;20202;-71
2022/01/15 02:58:21;;;;;;;4.00;2.27;;;-2.50;99.90;;;;;;2088878;28;20591;-72
2022/01/15 02:59:26;;;;;;;4.15;2.08;;;-2.50;99.90;;;;;;2088677;28;20229;-71
2022/01/15 03:00:27;;;;;;;4.95;2.33;;;-2.40;99.90;;;;;;2097547;28;20541;-71
2022/01/15 03:01:29;;;;;;;6.45;2.78;;;-2.50;99.90;;;;;;2104664;28;20182;-71
2022/01/15 03:02:31;;;;;;;3.63;1.88;;;-2.50;99.90;;;;;;2088765;28;20526;-71
2022/01/15 03:03:34;;;;;;;9.23;2.88;;;-2.50;99.90;;;;;;2080645;28;20305;-71
2022/01/15 03:04:34;;;;;;;4.63;2.47;;;-2.40;99.90;;;;;;2088689;28;20180;-71
2022/01/15 03:05:35;;;;;;;5.00;2.27;;;-2.50;99.90;;;;;;2089229;28;20646;-73
2022/01/15 03:06:36;;;;;;;5.20;2.20;;;-2.50;99.90;;;;;;2089217;28;20259;-71
2022/01/15 03:07:37;;;;;;;4.27;2.70;;;-2.50;99.90;;;;;;2089257;28;20186;-71
2022/01/15 03:08:39;;;;;;;4.15;2.67;;;-2.50;99.90;;;;;;2089298;28;20178;-71
2022/01/15 03:09:41;;;;;;;3.58;2.25;;;-2.50;99.90;;;;;;2088673;28;20553;-71
2022/01/15 03:10:41;;;;;;;3.47;2.50;;;-2.50;99.90;;;;;;2088624;28;20182;-71
2022/01/15 03:11:42;;;;;;;4.20;2.37;;;-2.50;99.90;;;;;;2089064;28;20636;-71
2022/01/15 03:12:43;;;;;;;4.87;2.37;;;-2.40;99.90;;;;;;2089315;28;20562;-71
2022/01/15 03:13:46;;;;;;;3.50;2.03;;;-2.40;99.90;;;;;;2090487;28;20174;-72
2022/01/15 03:14:48;;;;;;;3.65;2.20;;;-2.40;99.90;;;;;;2090104;28;20503;-71
2022/01/15 03:15:49;;;;;;;3.95;2.55;;;-2.50;99.90;;;;;;2090173;28;20205;-71
2022/01/15 03:16:49;;;;;;;3.97;2.93;;;-2.50;99.90;;;;;;2090835;28;20645;-72
2022/01/15 03:17:51;;;;;;;5.23;2.33;;;-2.40;99.90;;;;;;2090771;28;20564;-72
2022/01/15 03:18:52;;;;;;;3.70;2.13;;;-2.40;99.90;;;;;;2090836;28;20183;-72
2022/01/15 03:19:53;;;;;;;4.00;2.10;;;-2.40;99.90;;;;;;2090793;28;20664;-71
2022/01/15 03:20:54;;;;;;;2.87;2.00;;;-2.30;99.90;;;;;;2090079;28;20228;-72
2022/01/15 03:21:55;;;;;;;4.10;2.35;;;-2.30;99.90;;;;;;2090262;28;20239;-71
2022/01/15 03:22:56;;;;;;;3.65;2.35;;;-2.30;99.90;;;;;;2090049;28;20593;-71
2022/01/15 03:23:57;;;;;;;3.73;2.17;;;-2.40;99.90;;;;;;2081956;28;20249;-71
2022/01/15 03:24:57;;;;;;;5.57;2.27;;;-2.40;99.90;;;;;;2090059;28;20210;-71
2022/01/15 03:25:58;;;;;;;3.93;1.77;;;-2.40;99.90;;;;;;2090743;28;20185;-71
2022/01/15 03:26:59;;;;;;;3.03;2.00;;;-2.40;99.90;;;;;;2090643;28;20176;-71
2022/01/15 03:28:00;;;;;;;2.87;1.80;;;-2.50;99.90;;;;;;2090240;28;20572;-71
2022/01/15 03:29:01;;;;;;;5.80;1.83;;;-2.50;99.90;;;;;;2090222;28;20171;-71
2022/01/15 03:30:04;;;;;;;3.92;2.00;;;-2.50;99.90;;;;;;2090164;28;20188;-72
2022/01/15 03:31:05;;;;;;;3.05;1.90;;;-2.50;99.90;;;;;;2082204;28;20627;-71
2022/01/15 03:32:06;;;;;;;3.10;1.80;;;-2.50;99.90;;;;;;2090076;28;20213;-71
2022/01/15 03:33:07;;;;;;;3.72;1.92;;;-2.50;99.90;;;;;;2098259;28;20322;-71
2022/01/15 03:34:08;;;;;;;3.63;1.95;;;-2.50;99.90;;;;;;2081964;28;20184;-72
2022/01/15 03:35:16;;;;;;;2.50;1.90;;;-2.50;99.90;;;;;;2089962;28;20179;-72
2022/01/15 03:36:16;;;;;;;3.42;2.22;;;-2.50;99.90;;;;;;2090048;28;20608;-72
2022/01/15 03:37:18;;;;;;;4.17;1.80;;;-2.50;99.90;;;;;;2089979;28;20191;-71
2022/01/15 03:38:18;;;;;;;4.75;1.95;;;-2.50;99.90;;;;;;2090629;28;20186;-72
2022/01/15 03:39:19;;;;;;;5.40;2.90;;;-2.50;99.90;;;;;;2090720;28;20179;-71
2022/01/15 03:40:20;;;;;;;3.50;2.03;;;-2.40;99.90;;;;;;2090553;28;20786;-71
2022/01/15 03:41:21;;;;;;;2.17;1.50;;;-2.50;99.90;;;;;;2090025;28;20210;-71
2022/01/15 03:42:21;;;;;;;5.03;2.00;;;-2.50;99.90;;;;;;2089974;28;20258;-71
2022/01/15 03:43:22;;;;;;;4.10;2.20;;;-2.50;99.90;;;;;;2089935;28;20201;-73
2022/01/15 03:44:23;;;;;;;3.92;2.00;;;-2.50;99.90;;;;;;2090061;28;20719;-71
2022/01/15 03:45:24;;;;;;;4.00;2.10;;;-2.50;99.90;;;;;;2090468;28;20187;-71
2022/01/15 03:46:25;;;;;;;2.60;1.98;;;-2.50;99.90;;;;;;2090613;28;20184;-71
2022/01/15 03:47:26;;;;;;;2.83;1.73;;;-2.60;99.90;;;;;;2090457;28;20192;-71
2022/01/15 03:48:27;;;;;;;2.17;1.67;;;-2.60;99.90;;;;;;2090627;28;20177;-72
2022/01/15 03:49:28;;;;;;;2.78;1.67;;;-2.60;99.90;;;;;;2090558;28;20925;-71
2022/01/15 03:50:29;;;;;;;2.77;1.83;;;-2.60;99.90;;;;;;2090668;28;20192;-72
2022/01/15 03:51:30;;;;;;;3.17;1.80;;;-2.60;99.90;;;;;;2090496;28;20207;-71
2022/01/15 03:52:30;;;;;;;3.50;1.90;;;-2.60;99.90;;;;;;2090591;28;20190;-71
2022/01/15 03:53:31;;;;;;;3.83;1.70;;;-2.60;99.90;;;;;;2089831;28;20197;-72
2022/01/15 03:54:32;;;;;;;3.67;1.97;;;-2.60;99.90;;;;;;2089859;28;20686;-72
2022/01/15 03:55:32;;;;;;;3.07;1.63;;;-2.60;99.90;;;;;;2090466;28;20226;-71
2022/01/15 03:56:33;;;;;;;2.10;1.60;;;-2.70;99.90;;;;;;2090516;28;20167;-71
2022/01/15 03:57:34;;;;;;;4.17;1.87;;;-2.70;99.90;;;;;;2090552;28;20655;-71
2022/01/15 03:58:35;;;;;;;2.63;1.80;;;-2.70;99.90;;;;;;2090553;28;20195;-72
2022/01/15 03:59:36;;;;;;;2.87;1.70;;;-2.70;99.90;;;;;;2090014;28;20749;-71
2022/01/15 04:00:36;;;;;;;2.40;1.57;;;-2.80;99.90;;;;;;2081857;28;20629;-72
2022/01/15 04:01:37;;;;;;;3.23;1.80;;;-2.80;99.90;;;;;;2089945;28;20173;-72
2022/01/15 04:02:38;;;;;;;5.07;1.50;;;-2.70;99.90;;;;;;2089960;28;20179;-71
2022/01/15 04:03:39;;;;;;;4.45;2.20;;;-2.80;99.90;;;;;;2089854;28;20183;-72
2022/01/15 04:04:40;;;;;;;3.27;1.70;;;-2.80;99.90;;;;;;2089885;28;20175;-71
2022/01/15 04:05:40;;;;;;;3.60;1.50;;;-2.80;99.90;;;;;;2090587;28;20777;-71
2022/01/15 04:06:41;;;;;;;3.20;1.70;;;-2.80;99.90;;;;;;2090716;28;20181;-72
2022/01/15 04:07:42;;;;;;;3.73;1.70;;;-2.80;99.90;;;;;;2090557;28;20232;-71
2022/01/15 04:08:43;;;;;;;3.97;2.10;;;-2.80;99.90;;;;;;2090009;28;20171;-71
2022/01/15 04:09:43;;;;;;;2.67;1.83;;;-2.80;99.90;;;;;;2089941;28;20418;-71
2022/01/15 04:10:44;;;;;;;2.50;1.63;;;-2.80;99.90;;;;;;2090783;28;20169;-71
2022/01/15 04:11:46;;;;;;;4.33;2.10;;;-2.80;99.90;;;;;;2090453;28;20585;-71
2022/01/15 04:12:46;;;;;;;3.92;1.92;;;-2.80;99.90;;;;;;2089873;28;20167;-71
2022/01/15 04:13:47;;;;;;;3.13;1.50;;;-2.80;99.90;;;;;;2081610;28;20560;-72
2022/01/15 04:14:48;;;;;;;3.13;2.00;;;-2.80;99.90;;;;;;2081340;28;20169;-72
2022/01/15 04:15:52;;;;;;;2.47;1.90;;;-2.80;99.90;;;;;;2081504;28;20177;-71
2022/01/15 04:16:52;;;;;;;3.22;1.90;;;-2.90;99.90;;;;;;2089743;28;20253;-72
2022/01/15 04:17:53;;;;;;;3.20;1.97;;;-2.90;99.90;;;;;;2090323;28;20177;-71
2022/01/15 04:18:54;;;;;;;3.23;2.03;;;-2.80;99.90;;;;;;2090342;28;20194;-72
2022/01/15 04:19:55;;;;;;;3.63;1.60;;;-2.80;99.90;;;;;;2090212;28;20178;-71
2022/01/15 04:20:58;;;;;;;3.08;1.63;;;-2.90;99.90;;;;;;2090318;28;20246;-71
2022/01/15 04:21:58;;;;;;;3.00;2.08;;;-2.90;99.90;;;;;;2089713;28;20187;-71
2022/01/15 04:22:59;;;;;;;2.63;2.17;;;-2.90;99.90;;;;;;2090044;28;20220;-71
2022/01/15 04:24:00;;;;;;;2.87;1.80;;;-2.90;99.90;;;;;;2089757;28;20181;-72
2022/01/15 04:25:01;;;;;;;1.92;1.58;;;-2.90;99.90;;;;;;2081266;28;20231;-71
2022/01/15 04:26:04;;;;;;;2.30;1.63;;;-2.80;99.90;;;;;;2081469;28;20610;-72
2022/01/15 04:27:04;;;;;;;3.67;2.20;;;-2.80;99.90;;;;;;2081539;28;20201;-71
2022/01/15 04:28:09;;;;;;;2.47;1.77;;;-2.80;99.90;;;;;;2089773;28;20201;-71
2022/01/15 04:29:10;;;;;;;2.90;1.90;;;-2.80;99.90;;;;;;2090254;28;20724;-72
2022/01/15 04:30:13;;;;;;;3.47;1.87;;;-2.70;99.90;;;;;;2089567;28;20192;-71
2022/01/15 04:31:14;;;;;;;3.00;2.00;;;-2.70;99.90;;;;;;2081455;28;20709;-73
2022/01/15 04:32:14;;;;;;;3.63;1.70;;;-2.70;99.90;;;;;;2089666;28;20165;-71
2022/01/15 04:33:15;;;;;;;4.90;1.80;;;-2.70;99.90;;;;;;2090133;28;20665;-72
2022/01/15 04:34:20;;;;;;;2.50;1.70;;;-2.70;99.90;;;;;;2089618;28;20173;-72
2022/01/15 04:35:21;;;;;;;2.33;1.50;;;-2.70;99.90;;;;;;2081677;28;20190;-71
2022/01/15 04:36:21;;;;;;;4.07;1.80;;;-2.70;99.90;;;;;;2089646;28;20181;-71
2022/01/15 04:37:24;;;;;;;2.17;1.40;;;-2.70;99.90;;;;;;2090131;28;20184;-72
2022/01/15 04:38:25;;;;;;;2.47;1.90;;;-2.70;99.90;;;;;;2090229;28;20174;-71
2022/01/15 04:39:26;;;;;;;4.63;1.77;;;-2.70;99.90;;;;;;2089559;28;20268;-71
2022/01/15 04:40:26;;;;;;;3.50;1.73;;;-2.70;99.90;;;;;;2089566;28;20417;-70
2022/01/15 04:41:27;;;;;;;2.57;1.70;;;-2.70;99.90;;;;;;2090048;28;20224;-71
2022/01/15 04:42:29;;;;;;;2.10;1.47;;;-2.70;99.90;;;;;;2090197;28;20176;-71
2022/01/15 04:43:30;;;;;;;2.78;1.80;;;-2.80;99.90;;;;;;2089816;28;20269;-72
2022/01/15 04:44:31;;;;;;;3.13;1.90;;;-2.80;99.90;;;;;;2089442;28;20214;-72
2022/01/15 04:45:32;;;;;;;3.17;1.97;;;-2.80;99.90;;;;;;2089534;28;20209;-71
2022/01/15 04:46:35;;;;;;;4.03;1.93;;;-2.90;99.90;;;;;;2090081;28;20172;-72
2022/01/15 04:47:38;;;;;;;2.47;1.70;;;-2.90;99.90;;;;;;2089510;28;20174;-71
2022/01/15 04:48:38;;;;;;;3.00;1.77;;;-2.90;99.90;;;;;;2089448;28;20206;-72
2022/01/15 04:49:39;;;;;;;2.37;1.60;;;-2.90;99.90;;;;;;2090113;28;20175;-72
2022/01/15 04:50:40;;;;;;;2.40;1.70;;;-2.90;99.90;;;;;;2089572;28;20178;-71
2022/01/15 04:51:40;;;;;;;2.77;2.17;;;-2.90;99.90;;;;;;2089423;28;20208;-72
2022/01/15 04:52:41;;;;;;;3.37;2.17;;;-2.90;99.90;;;;;;2089960;28;20240;-71
2022/01/15 04:53:42;;;;;;;3.53;2.00;;;-2.90;99.90;;;;;;2089436;28;20178;-71
2022/01/15 04:54:42;;;;;;;2.87;1.90;;;-2.90;99.90;;;;;;2089308;28;20238;-73
2022/01/15 04:55:43;;;;;;;3.53;2.20;;;-2.90;99.90;;;;;;2090025;28;20188;-72
2022/01/15 04:56:44;;;;;;;2.43;1.70;;;-2.90;99.90;;;;;;2089977;28;20170;-72
2022/01/15 04:57:44;;;;;;;2.53;1.77;;;-2.90;99.90;;;;;;2089973;28;20169;-72
2022/01/15 04:58:45;;;;;;;3.50;2.20;;;-2.90;99.90;;;;;;2090042;28;20176;-71
2022/01/15 04:59:46;;;;;;;5.70;2.00;;;-2.90;99.90;;;;;;2090042;28;20181;-71
2022/01/15 05:00:46;;;;;;;2.87;2.00;;;-2.90;99.90;;;;;;2090082;28;20191;-71
2022/01/15 05:01:47;;;;;;;3.83;1.90;;;-2.90;99.90;;;;;;2089972;28;20193;-72
2022/01/15 05:02:48;;;;;;;2.80;2.10;;;-2.90;99.90;;;;;;2089304;28;20733;-71
2022/01/15 05:03:48;;;;;;;3.23;1.87;;;-3.00;99.90;;;;;;2089454;28;20186;-73
2022/01/15 05:04:49;;;;;;;3.60;2.10;;;-3.00;99.90;;;;;;2089858;28;20547;-71
2022/01/15 05:05:50;;;;;;;3.50;2.00;;;-3.00;99.90;;;;;;2089921;28;20235;-71
2022/01/15 05:06:50;;;;;;;2.97;2.10;;;-3.00;99.90;;;;;;2089925;28;20178;-71
2022/01/15 05:07:52;;;;;;;4.17;2.43;;;-3.10;99.90;;;;;;2089852;28;20188;-71
2022/01/15 05:09:02;;;;;;;2.33;2.00;;;-3.10;99.90;;;;;;2089973;28;20176;-71
2022/01/15 05:10:06;;;;;;;3.33;2.20;;;-3.00;99.90;;;;;;2089347;28;20689;-72
2022/01/15 05:11:14;;;;;;;2.72;2.03;;;-3.00;99.90;;;;;;2082579;28;20205;-72
2022/01/15 05:13:30;;;;;;;3.10;1.85;;;-2.90;99.90;;;;;;2089257;28;20225;-71
2022/01/15 05:14:31;;;;;;;2.95;1.75;;;-2.90;99.90;;;;;;2089280;28;20166;-72
2022/01/15 05:15:31;;;;;;;3.40;2.20;;;-2.90;99.90;;;;;;2089927;28;20164;-71
2022/01/15 05:16:32;;;;;;;2.40;1.90;;;-2.90;99.90;;;;;;2081020;28;20171;-71
2022/01/15 05:17:33;;;;;;;2.27;1.63;;;-2.80;99.90;;;;;;2081033;28;20659;-71
2022/01/15 05:18:33;;;;;;;2.80;1.70;;;-2.80;99.90;;;;;;2089175;28;20617;-72
2022/01/15 05:19:34;;;;;;;2.97;1.73;;;-2.80;99.90;;;;;;2089329;28;20195;-71
2022/01/15 05:20:36;;;;;;;4.17;2.33;;;-2.70;99.90;;;;;;2089861;28;20199;-71
2022/01/15 05:21:37;;;;;;;4.75;2.40;;;-2.70;99.90;;;;;;2089286;28;20333;-71
2022/01/15 05:22:39;;;;;;;5.95;2.40;;;-2.70;99.90;;;;;;2089115;28;20678;-71
2022/01/15 05:23:40;;;;;;;3.45;2.40;;;-2.70;99.90;;;;;;2080872;28;20638;-72
2022/01/15 05:24:40;;;;;;;3.10;2.43;;;-2.60;99.90;;;;;;2080831;28;20220;-71
2022/01/15 05:25:41;;;;;;;4.03;2.43;;;-2.60;99.90;;;;;;2089179;28;20197;-71
2022/01/15 05:26:42;;;;;;;3.37;2.07;;;-2.60;99.90;;;;;;2089205;28;20686;-71
2022/01/15 05:27:44;;;;;;;4.03;2.07;;;-2.60;99.90;;;;;;2089182;28;20175;-71
2022/01/15 05:28:45;;;;;;;2.75;1.90;;;-2.70;99.90;;;;;;2097676;28;20344;-71
2022/01/15 05:29:45;;;;;;;3.23;2.10;;;-2.70;99.90;;;;;;2105805;28;20252;-72
2022/01/15 05:30:46;;;;;;;5.33;2.10;;;-2.70;99.90;;;;;;2089149;28;20182;-71
2022/01/15 05:31:47;;;;;;;4.83;2.70;;;-2.60;99.90;;;;;;2089131;28;20209;-71
2022/01/15 05:32:48;;;;;;;4.43;2.13;;;-2.60;99.90;;;;;;2089590;28;20173;-73
2022/01/15 05:33:48;;;;;;;3.88;2.53;;;-2.50;99.90;;;;;;2089737;28;20181;-71
2022/01/15 05:34:52;;;;;;;4.00;2.20;;;-2.50;99.90;;;;;;2089561;28;20266;-71
2022/01/15 05:35:52;;;;;;;3.03;2.00;;;-2.50;99.90;;;;;;2088582;28;20188;-71
2022/01/15 05:36:53;;;;;;;2.70;2.03;;;-2.60;99.90;;;;;;2088978;28;20246;-71
2022/01/15 05:37:58;;;;;;;3.43;2.10;;;-2.70;99.90;;;;;;2089916;28;20210;-72
2022/01/15 05:38:59;;;;;;;4.07;2.40;;;-2.70;99.90;;;;;;2089882;28;20175;-71
2022/01/15 05:39:59;;;;;;;2.50;2.17;;;-2.70;99.90;;;;;;2088981;28;20225;-71
2022/01/15 05:41:00;;;;;;;3.43;2.13;;;-2.70;99.90;;;;;;2089215;28;20180;-72
2022/01/15 05:42:01;;;;;;;3.27;1.80;;;-2.70;99.90;;;;;;2089664;28;20171;-71
2022/01/15 05:43:02;;;;;;;2.57;1.70;;;-2.60;99.90;;;;;;2089027;28;20210;-72
2022/01/15 05:44:03;;;;;;;5.00;2.17;;;-2.70;99.90;;;;;;2089007;28;20644;-71